createdAt,value
2022-11-18T00:02:25.361Z,2.83
2022-11-18T00:05:27.028Z,4.27
2022-11-18T00:08:28.723Z,2.57
2022-11-18T00:11:49.010Z,3.90
2022-11-18T00:14:50.727Z,4.37
2022-11-18T00:17:52.358Z,4.37
2022-11-18T00:20:54.012Z,5.07
2022-11-18T00:23:55.679Z,3.83
2022-11-18T00:26:57.611Z,4.70
2022-11-18T00:29:59.303Z,5.87
2022-11-18T00:33:00.959Z,7.93
2022-11-18T00:36:04.003Z,4.50
2022-11-18T00:39:05.677Z,3.00
2022-11-18T00:42:26.139Z,9.03
2022-11-18T00:45:27.859Z,3.67
2022-11-18T00:48:29.756Z,6.83
2022-11-18T00:51:31.412Z,5.33
2022-11-18T00:54:33.130Z,2.97
2022-11-18T00:57:34.868Z,4.13
2022-11-18T01:00:36.527Z,4.40
2022-11-18T01:03:38.223Z,7.40
2022-11-18T01:06:39.955Z,3.53
2022-11-18T01:09:41.684Z,3.97
2022-11-18T01:13:02.112Z,4.10
2022-11-18T01:16:03.972Z,5.30
2022-11-18T01:19:05.687Z,2.83
2022-11-18T01:22:07.342Z,3.63
2022-11-18T01:25:09.535Z,4.80
2022-11-18T01:28:12.166Z,4.47
2022-11-18T01:31:16.947Z,4.60
2022-11-18T01:34:18.713Z,1.87
2022-11-18T01:37:20.380Z,1.93
2022-11-18T01:40:22.053Z,1.80
2022-11-18T01:43:24.209Z,7.60
2022-11-18T01:46:28.765Z,8.13
2022-11-18T01:49:30.632Z,2.63
2022-11-18T01:52:34.477Z,5.03
2022-11-18T01:55:41.118Z,3.33
2022-11-18T01:58:57.374Z,4.67
2022-11-18T02:02:00.946Z,3.50
2022-11-18T02:05:05.613Z,4.33
2022-11-18T02:08:07.986Z,1.93
2022-11-18T02:11:34.006Z,3.60
2022-11-18T02:14:41.444Z,1.97
2022-11-18T02:18:07.483Z,4.83
2022-11-18T02:21:38.558Z,3.90
2022-11-18T02:25:06.334Z,3.80
2022-11-18T02:28:38.555Z,6.30
2022-11-18T02:31:56.187Z,5.00
2022-11-18T02:35:09.506Z,5.03
2022-11-18T02:38:23.251Z,6.33
2022-11-18T02:41:29.186Z,2.77
2022-11-18T02:44:32.631Z,2.17
2022-11-18T02:47:37.299Z,4.33
2022-11-18T02:50:42.694Z,2.90
2022-11-18T02:53:47.741Z,3.67
2022-11-18T02:56:52.207Z,6.67
2022-11-18T02:59:53.876Z,1.97
2022-11-18T03:02:55.558Z,3.00
2022-11-18T03:06:08.264Z,4.17
2022-11-18T03:09:18.443Z,4.60
2022-11-18T03:12:41.251Z,5.27
2022-11-18T03:16:06.831Z,3.17
2022-11-18T03:19:24.880Z,2.73
2022-11-18T03:22:52.355Z,5.37
2022-11-18T03:25:56.225Z,3.07
2022-11-18T03:29:21.311Z,4.17
2022-11-18T03:32:33.347Z,3.70
2022-11-18T03:35:38.130Z,4.13
2022-11-18T03:38:47.808Z,3.43
2022-11-18T03:41:57.603Z,4.50
2022-11-18T03:45:31.078Z,1.53
2022-11-18T03:48:40.877Z,5.33
2022-11-18T03:51:47.952Z,4.73
2022-11-18T03:54:54.810Z,4.90
2022-11-18T03:58:05.487Z,4.17
2022-11-18T04:01:16.829Z,11.03
2022-11-18T04:04:19.408Z,3.77
2022-11-18T04:07:32.557Z,8.70
2022-11-18T04:11:32.887Z,8.40
2022-11-18T04:14:35.656Z,5.37
2022-11-18T04:17:37.374Z,4.90
2022-11-18T04:20:39.486Z,10.17
2022-11-18T04:23:41.176Z,6.43
2022-11-18T04:26:43.120Z,9.53
2022-11-18T04:29:44.807Z,5.43
2022-11-18T04:32:46.493Z,6.23
2022-11-18T04:35:48.161Z,3.97
2022-11-18T04:38:49.823Z,5.23
2022-11-18T04:41:57.264Z,7.87
2022-11-18T04:44:59.031Z,3.97
2022-11-18T04:48:03.696Z,6.20
2022-11-18T04:51:06.039Z,3.07
2022-11-18T04:54:07.742Z,5.97
2022-11-18T04:57:09.896Z,4.37
2022-11-18T05:00:12.340Z,4.63
2022-11-18T05:03:15.108Z,5.40
2022-11-18T05:06:16.887Z,8.80
2022-11-18T05:09:19.436Z,4.87
2022-11-18T05:12:40.141Z,4.80
2022-11-18T05:15:41.832Z,2.93
2022-11-18T05:18:43.779Z,3.67
2022-11-18T05:21:45.517Z,4.70
2022-11-18T05:24:47.552Z,6.13
2022-11-18T05:27:49.214Z,4.97
2022-11-18T05:30:50.877Z,5.57
2022-11-18T05:33:52.538Z,3.70
2022-11-18T05:36:54.178Z,6.17
2022-11-18T05:39:55.812Z,5.23
2022-11-18T05:43:12.585Z,3.43
2022-11-18T05:46:14.265Z,4.60
2022-11-18T05:49:16.248Z,5.03
2022-11-18T05:52:18.131Z,9.93
2022-11-18T05:55:22.860Z,4.20
2022-11-18T05:58:24.827Z,6.07
2022-11-18T06:01:32.113Z,10.33
2022-11-18T06:04:41.159Z,11.07
2022-11-18T06:07:44.816Z,9.30
2022-11-18T06:10:47.907Z,9.43
2022-11-18T06:14:02.508Z,8.33
2022-11-18T06:17:08.871Z,3.77
2022-11-18T06:20:11.041Z,5.20
2022-11-18T06:23:13.326Z,4.60
2022-11-18T06:26:16.879Z,5.00
2022-11-18T06:29:26.003Z,9.87
2022-11-18T06:32:29.261Z,7.10
2022-11-18T06:35:30.938Z,9.27
2022-11-18T06:38:32.658Z,8.37
2022-11-18T06:41:34.450Z,9.77
2022-11-18T06:44:36.191Z,9.10
2022-11-18T06:47:37.988Z,9.17
2022-11-18T06:50:39.654Z,5.93
2022-11-18T06:53:41.542Z,9.30
2022-11-18T06:56:43.236Z,7.87
2022-11-18T06:59:44.947Z,8.00
2022-11-18T07:02:46.602Z,8.10
2022-11-18T07:05:48.298Z,8.13
2022-11-18T07:08:50.916Z,8.87
2022-11-18T07:11:52.647Z,7.33
2022-11-18T07:14:54.323Z,9.40
2022-11-18T07:17:55.999Z,8.77
2022-11-18T07:20:57.673Z,6.93
2022-11-18T07:23:59.340Z,9.67
2022-11-18T07:27:01.014Z,11.70
2022-11-18T07:30:02.746Z,11.90
2022-11-18T07:33:04.398Z,7.70
2022-11-18T07:36:11.911Z,8.97
2022-11-18T07:39:13.624Z,10.63
2022-11-18T07:42:15.303Z,8.23
2022-11-18T07:45:17.055Z,9.10
2022-11-18T07:48:18.713Z,9.70
2022-11-18T07:51:25.993Z,9.23
2022-11-18T07:54:27.626Z,10.80
2022-11-18T07:57:29.309Z,9.40
2022-11-18T08:00:31.021Z,13.40
2022-11-18T08:03:32.693Z,13.40
2022-11-18T08:06:34.898Z,12.17
2022-11-18T08:09:36.642Z,12.10
2022-11-18T08:12:38.301Z,9.63
2022-11-18T08:15:41.992Z,10.10
2022-11-18T08:18:44.246Z,16.10
2022-11-18T08:21:45.957Z,13.07
2022-11-18T08:24:47.728Z,12.07
2022-11-18T08:27:49.372Z,11.23
2022-11-18T08:30:51.015Z,10.77
2022-11-18T08:34:04.879Z,12.10
2022-11-18T08:37:06.539Z,9.03
2022-11-18T08:40:08.741Z,11.93
2022-11-18T08:43:12.061Z,11.57
2022-11-18T08:46:13.699Z,8.20
2022-11-18T08:49:15.499Z,9.90
2022-11-18T08:52:17.448Z,14.17
2022-11-18T08:55:19.103Z,13.20
2022-11-18T08:58:20.769Z,10.10
2022-11-18T09:01:22.877Z,11.50
2022-11-18T09:04:24.640Z,13.07
2022-11-18T09:07:27.050Z,9.03
2022-11-18T09:10:28.784Z,12.07
2022-11-18T09:14:00.592Z,13.23
2022-11-18T09:16:53.082Z,7.90
2022-11-18T09:19:54.836Z,15.40
2022-11-18T09:22:56.518Z,7.73
2022-11-18T09:26:07.107Z,9.83
2022-11-18T09:29:08.865Z,7.73
2022-11-18T09:32:10.581Z,10.43
2022-11-18T09:35:12.366Z,6.63
2022-11-18T09:38:14.212Z,13.40
2022-11-18T09:41:45.050Z,9.17
2022-11-18T09:45:13.203Z,7.60
2022-11-18T09:48:20.508Z,7.77
2022-11-18T09:51:26.895Z,13.57
2022-11-18T09:54:34.444Z,8.33
2022-11-18T09:57:40.260Z,7.73
2022-11-18T10:00:43.918Z,10.87
2022-11-18T10:03:45.594Z,7.67
2022-11-18T10:06:49.366Z,12.50
2022-11-18T10:09:54.067Z,10.33
2022-11-18T10:13:02.434Z,8.50
2022-11-18T10:16:43.664Z,8.03
2022-11-18T10:20:17.364Z,9.47
2022-11-18T10:23:26.726Z,12.20
2022-11-18T10:26:36.847Z,10.23
2022-11-18T10:29:38.624Z,8.23
2022-11-18T10:33:03.363Z,6.73
2022-11-18T10:36:12.871Z,6.97
2022-11-18T10:39:15.602Z,14.50
2022-11-18T10:42:40.122Z,9.53
2022-11-18T10:45:41.947Z,12.10
2022-11-18T10:48:43.637Z,10.17
2022-11-18T10:52:08.639Z,10.40
2022-11-18T10:55:21.451Z,13.47
2022-11-18T10:58:23.607Z,8.90
2022-11-18T11:01:26.575Z,7.77
2022-11-18T11:04:29.264Z,8.40
2022-11-18T11:07:32.600Z,7.10
2022-11-18T11:10:34.441Z,11.33
2022-11-18T11:13:42.426Z,15.30
2022-11-18T11:16:59.223Z,11.87
2022-11-18T11:20:15.517Z,13.17
2022-11-18T11:23:22.237Z,12.97
2022-11-18T11:30:19.318Z,15.13
2022-11-18T11:33:36.519Z,16.27
2022-11-18T11:36:53.138Z,12.90
2022-11-18T11:40:14.789Z,18.00
2022-11-18T11:43:43.444Z,18.10
2022-11-18T11:47:17.972Z,14.27
2022-11-18T11:50:25.809Z,16.63
2022-11-18T11:53:39.925Z,21.33
2022-11-18T11:56:47.324Z,17.07
2022-11-18T12:00:01.731Z,18.53
2022-11-18T12:03:35.298Z,19.37
2022-11-18T12:06:37.302Z,13.67
2022-11-18T12:09:58.078Z,21.27
2022-11-18T12:13:39.158Z,18.90
2022-11-18T12:17:12.802Z,18.73
2022-11-18T12:20:34.820Z,17.33
2022-11-18T12:23:36.462Z,20.37
2022-11-18T12:26:38.178Z,16.20
2022-11-18T12:29:49.010Z,19.03
2022-11-18T12:32:56.716Z,17.10
2022-11-18T12:35:58.384Z,18.23
2022-11-18T12:39:25.837Z,19.27
2022-11-18T12:42:59.946Z,17.87
2022-11-18T12:46:01.703Z,19.30
2022-11-18T12:49:21.854Z,14.27
2022-11-18T12:52:43.757Z,19.73
2022-11-18T12:55:45.415Z,17.57
2022-11-18T12:58:49.524Z,18.30
2022-11-18T13:02:21.903Z,15.67
2022-11-18T13:05:32.731Z,13.17
2022-11-18T13:08:35.339Z,14.13
2022-11-18T13:11:46.777Z,14.60
2022-11-18T13:15:07.728Z,17.93
2022-11-18T13:18:18.727Z,11.60
2022-11-18T13:21:44.675Z,13.07
2022-11-18T13:24:52.139Z,12.90
2022-11-18T13:28:11.660Z,15.67
2022-11-18T13:31:31.778Z,16.23
2022-11-18T13:34:47.040Z,13.97
2022-11-18T13:37:54.829Z,11.53
2022-11-18T13:41:07.783Z,12.67
2022-11-18T13:44:27.180Z,14.93
2022-11-18T13:47:57.302Z,12.27
2022-11-18T13:51:00.907Z,11.67
2022-11-18T13:54:02.652Z,14.83
2022-11-18T13:57:04.520Z,15.90
2022-11-18T14:00:19.438Z,15.63
2022-11-18T14:03:44.268Z,16.97
2022-11-18T14:06:46.019Z,15.97
2022-11-18T14:09:54.459Z,19.07
2022-11-18T14:13:00.959Z,15.70
2022-11-18T14:16:24.052Z,18.50
2022-11-18T14:19:31.510Z,14.80
2022-11-18T14:22:33.459Z,16.07
2022-11-18T14:25:36.664Z,21.03
2022-11-18T14:28:38.987Z,24.17
2022-11-18T14:31:42.343Z,18.87
2022-11-18T14:34:44.029Z,21.10
2022-11-18T14:37:45.751Z,18.23
2022-11-18T14:40:47.433Z,16.73
2022-11-18T14:43:49.099Z,19.83
2022-11-18T14:46:53.517Z,16.97
2022-11-18T14:49:55.574Z,18.37
2022-11-18T14:52:57.286Z,21.53
2022-11-18T14:56:00.141Z,19.87
2022-11-18T14:59:01.835Z,19.27
2022-11-18T15:02:03.812Z,23.40
2022-11-18T15:05:05.789Z,22.67
2022-11-18T15:08:08.398Z,20.23
2022-11-18T15:11:10.647Z,19.63
2022-11-18T15:14:12.418Z,16.13
2022-11-18T15:17:15.499Z,18.03
2022-11-18T15:20:19.911Z,11.93
2022-11-18T15:23:25.701Z,13.30
2022-11-18T15:26:37.123Z,15.33
2022-11-18T15:29:39.862Z,11.77
2022-11-18T15:32:42.367Z,10.43
2022-11-18T15:35:44.045Z,13.83
2022-11-18T15:38:46.332Z,14.07
2022-11-18T15:41:48.039Z,13.93
2022-11-18T15:44:49.708Z,12.57
2022-11-18T15:47:51.872Z,12.30
2022-11-18T15:50:54.425Z,13.97
2022-11-18T15:53:56.218Z,9.67
2022-11-18T15:56:57.878Z,13.60
2022-11-18T15:59:59.705Z,15.67
2022-11-18T16:03:01.339Z,8.27
2022-11-18T16:06:03.406Z,13.97
2022-11-18T16:09:06.088Z,10.23
2022-11-18T16:12:27.386Z,11.17
2022-11-18T16:15:44.264Z,9.27
2022-11-18T16:18:46.056Z,10.30
2022-11-18T16:21:50.195Z,11.93
2022-11-18T16:24:53.383Z,12.47
2022-11-18T16:27:55.870Z,9.90
2022-11-18T16:31:16.200Z,12.60
2022-11-18T16:34:22.122Z,10.47
2022-11-18T16:37:23.931Z,13.17
2022-11-18T16:40:28.644Z,8.73
2022-11-18T16:43:30.368Z,16.90
2022-11-18T16:46:33.868Z,12.70
2022-11-18T16:49:35.620Z,10.20
2022-11-18T16:52:37.489Z,9.83
2022-11-18T16:55:39.658Z,10.77
2022-11-18T16:58:41.295Z,11.37
2022-11-18T17:01:55.149Z,10.40
2022-11-18T17:04:56.952Z,10.10
2022-11-18T17:07:58.676Z,11.10
2022-11-18T17:11:11.437Z,12.80
2022-11-18T17:14:13.137Z,11.97
2022-11-18T17:17:14.799Z,15.20
2022-11-18T17:20:16.796Z,17.27
2022-11-18T17:23:18.475Z,13.77
2022-11-18T17:26:27.040Z,15.17
2022-11-18T17:29:29.086Z,14.77
2022-11-18T17:32:30.736Z,13.03
2022-11-18T17:35:32.424Z,13.10
2022-11-18T17:38:35.682Z,13.93
2022-11-18T17:41:56.001Z,13.13
2022-11-18T17:44:57.657Z,12.40
2022-11-18T17:47:59.326Z,14.70
2022-11-18T17:51:05.401Z,12.50
2022-11-18T17:54:07.811Z,10.40
2022-11-18T17:57:09.499Z,11.73
2022-11-18T18:00:11.780Z,15.07
2022-11-18T18:03:15.042Z,10.77
2022-11-18T18:06:17.784Z,10.67
2022-11-18T18:09:21.833Z,10.47
2022-11-18T18:12:45.758Z,11.93
2022-11-18T18:15:47.442Z,11.37
2022-11-18T18:18:49.236Z,9.43
2022-11-18T18:21:51.160Z,12.37
2022-11-18T18:24:52.899Z,12.37
2022-11-18T18:27:54.614Z,8.10
2022-11-18T18:31:00.422Z,10.07
2022-11-18T18:34:02.466Z,9.43
2022-11-18T18:37:04.157Z,9.23
2022-11-18T18:40:06.473Z,9.90
2022-11-18T18:43:08.156Z,10.80
2022-11-18T18:46:34.075Z,10.67
2022-11-18T18:49:35.949Z,10.53
2022-11-18T18:52:37.965Z,6.83
2022-11-18T18:55:44.618Z,8.07
2022-11-18T18:58:46.808Z,8.63
2022-11-18T19:01:48.574Z,12.07
2022-11-18T19:04:50.414Z,8.17
2022-11-18T19:07:52.182Z,7.50
2022-11-18T19:10:53.900Z,11.17
2022-11-18T19:13:58.933Z,8.63
2022-11-18T19:17:06.363Z,11.63
2022-11-18T19:20:32.137Z,12.70
2022-11-18T19:23:33.848Z,9.50
2022-11-18T19:26:35.862Z,9.30
2022-11-18T19:29:37.544Z,8.53
2022-11-18T19:32:40.417Z,11.17
2022-11-18T19:35:42.111Z,8.47
2022-11-18T19:38:44.090Z,8.70
2022-11-18T19:41:45.779Z,7.17
2022-11-18T19:44:47.471Z,10.70
2022-11-18T19:47:49.235Z,7.10
2022-11-18T19:50:51.045Z,12.07
2022-11-18T19:53:58.434Z,10.57
2022-11-18T19:57:03.669Z,9.37
2022-11-18T20:00:05.896Z,9.20
2022-11-18T20:03:10.903Z,8.03
2022-11-18T20:06:16.092Z,7.10
2022-11-18T20:09:18.419Z,6.93
2022-11-18T20:12:20.324Z,6.43
2022-11-18T20:15:22.426Z,5.63
2022-11-18T20:18:25.326Z,8.63
2022-11-18T20:21:28.504Z,8.97
2022-11-18T20:24:30.194Z,5.60
2022-11-18T20:27:31.847Z,7.10
2022-11-18T20:30:33.565Z,8.80
2022-11-18T20:33:40.490Z,8.53
2022-11-18T20:36:42.696Z,6.10
2022-11-18T20:39:44.382Z,6.80
2022-11-18T20:43:04.888Z,7.83
2022-11-18T20:46:08.078Z,7.07
2022-11-18T20:49:09.840Z,6.27
2022-11-18T20:52:11.501Z,7.27
2022-11-18T20:55:13.403Z,8.37
2022-11-18T20:58:15.847Z,7.10
2022-11-18T21:01:22.567Z,6.93
2022-11-18T21:04:24.290Z,7.07
2022-11-18T21:07:26.041Z,7.20
2022-11-18T21:10:27.762Z,8.97
2022-11-18T21:13:48.688Z,9.50
2022-11-18T21:16:51.423Z,5.90
2022-11-18T21:19:53.112Z,9.47
2022-11-18T21:22:56.860Z,9.93
2022-11-18T21:26:01.432Z,10.90
2022-11-18T21:29:05.513Z,7.63
2022-11-18T21:32:07.155Z,10.80
2022-11-18T21:35:09.203Z,7.90
2022-11-18T21:38:10.868Z,9.53
2022-11-18T21:41:12.804Z,8.30
2022-11-18T21:44:14.879Z,11.07
2022-11-18T21:47:16.535Z,6.77
2022-11-18T21:50:18.263Z,8.57
2022-11-18T21:53:20.033Z,7.47
2022-11-18T21:56:23.587Z,10.33
2022-11-18T21:59:25.246Z,10.20
2022-11-18T22:02:26.953Z,7.33
2022-11-18T22:05:29.330Z,7.83
2022-11-18T22:08:31.188Z,8.70
2022-11-18T22:11:32.898Z,6.63
2022-11-18T22:14:34.683Z,7.70
2022-11-18T22:17:36.352Z,7.40
2022-11-18T22:20:38.402Z,6.43
2022-11-18T22:23:40.570Z,7.43
2022-11-18T22:26:42.391Z,5.80
2022-11-18T22:29:44.194Z,6.10
2022-11-18T22:32:45.843Z,6.70
2022-11-18T22:35:47.554Z,7.00
2022-11-18T22:38:49.689Z,5.90
2022-11-18T22:42:09.718Z,6.53
2022-11-18T22:45:11.423Z,6.10
2022-11-18T22:48:13.290Z,8.17
2022-11-18T22:51:14.937Z,6.47
2022-11-18T22:54:37.841Z,5.20
2022-11-18T22:57:38.274Z,7.20
2022-11-18T23:00:39.920Z,6.57
2022-11-18T23:03:41.908Z,6.60
2022-11-18T23:06:43.573Z,8.67
2022-11-18T23:09:45.276Z,6.67
2022-11-18T23:13:05.480Z,7.87
2022-11-18T23:16:07.358Z,5.30
2022-11-18T23:19:14.437Z,5.23
2022-11-18T23:22:16.214Z,6.53
2022-11-18T23:25:17.865Z,7.87
2022-11-18T23:28:19.704Z,6.47
2022-11-18T23:31:24.421Z,6.20
2022-11-18T23:34:26.070Z,6.27
2022-11-18T23:37:27.713Z,7.33
2022-11-18T23:40:30.918Z,6.13
2022-11-18T23:43:33.233Z,8.10
2022-11-18T23:46:35.033Z,10.77
2022-11-18T23:49:36.704Z,9.23
2022-11-18T23:52:41.684Z,10.80
2022-11-18T23:55:43.324Z,8.53
2022-11-18T23:58:47.169Z,11.80
